sensor_id;sensor_type;location;lat;lon;timestamp;P1;durP1;ratioP1;P2;durP2;ratioP2
5612;SDS011;63463;53.586;9.928;2022-10-31T00:00:06;44.00;;;20.70;;
5612;SDS011;63463;53.586;9.928;2022-10-31T00:02:33;37.13;;;18.60;;
5612;SDS011;63463;53.586;9.928;2022-10-31T00:04:59;39.87;;;20.27;;
5612;SDS011;63463;53.586;9.928;2022-10-31T00:07:24;50.40;;;19.90;;
5612;SDS011;63463;53.586;9.928;2022-10-31T00:09:50;40.53;;;19.30;;
5612;SDS011;63463;53.586;9.928;2022-10-31T00:12:16;39.63;;;19.10;;
5612;SDS011;63463;53.586;9.928;2022-10-31T00:14:42;41.33;;;20.87;;
5612;SDS011;63463;53.586;9.928;2022-10-31T00:17:08;45.30;;;20.30;;
5612;SDS011;63463;53.586;9.928;2022-10-31T00:19:34;47.33;;;20.00;;
5612;SDS011;63463;53.586;9.928;2022-10-31T00:22:00;45.87;;;20.43;;
5612;SDS011;63463;53.586;9.928;2022-10-31T00:24:26;47.03;;;19.90;;
5612;SDS011;63463;53.586;9.928;2022-10-31T00:26:52;49.07;;;19.50;;
5612;SDS011;63463;53.586;9.928;2022-10-31T00:29:18;42.37;;;18.97;;
5612;SDS011;63463;53.586;9.928;2022-10-31T00:31:44;40.57;;;20.37;;
5612;SDS011;63463;53.586;9.928;2022-10-31T00:34:10;40.93;;;21.00;;
5612;SDS011;63463;53.586;9.928;2022-10-31T00:36:36;39.67;;;19.10;;
5612;SDS011;63463;53.586;9.928;2022-10-31T00:39:02;37.00;;;21.50;;
5612;SDS011;63463;53.586;9.928;2022-10-31T00:41:27;50.40;;;21.37;;
5612;SDS011;63463;53.586;9.928;2022-10-31T00:43:54;43.93;;;20.67;;
5612;SDS011;63463;53.586;9.928;2022-10-31T00:46:20;38.83;;;18.93;;
5612;SDS011;63463;53.586;9.928;2022-10-31T00:48:46;51.43;;;21.20;;
5612;SDS011;63463;53.586;9.928;2022-10-31T00:51:12;44.47;;;19.23;;
5612;SDS011;63463;53.586;9.928;2022-10-31T00:53:38;51.83;;;22.87;;
5612;SDS011;63463;53.586;9.928;2022-10-31T00:56:04;46.43;;;21.43;;
5612;SDS011;63463;53.586;9.928;2022-10-31T00:58:30;41.17;;;19.63;;
5612;SDS011;63463;53.586;9.928;2022-10-31T01:00:56;54.70;;;22.73;;
5612;SDS011;63463;53.586;9.928;2022-10-31T01:03:23;48.93;;;23.07;;
5612;SDS011;63463;53.586;9.928;2022-10-31T01:08:27;41.97;;;21.03;;
5612;SDS011;63463;53.586;9.928;2022-10-31T01:11:04;52.40;;;24.03;;
5612;SDS011;63463;53.586;9.928;2022-10-31T01:13:30;53.60;;;22.87;;
5612;SDS011;63463;53.586;9.928;2022-10-31T01:15:56;49.67;;;22.40;;
5612;SDS011;63463;53.586;9.928;2022-10-31T01:18:22;57.83;;;24.60;;
5612;SDS011;63463;53.586;9.928;2022-10-31T01:20:56;52.50;;;23.60;;
5612;SDS011;63463;53.586;9.928;2022-10-31T01:23:22;49.67;;;23.30;;
5612;SDS011;63463;53.586;9.928;2022-10-31T01:25:48;59.43;;;23.90;;
5612;SDS011;63463;53.586;9.928;2022-10-31T01:28:14;79.47;;;26.10;;
5612;SDS011;63463;53.586;9.928;2022-10-31T01:30:40;72.60;;;24.70;;
5612;SDS011;63463;53.586;9.928;2022-10-31T01:33:06;57.80;;;23.53;;
5612;SDS011;63463;53.586;9.928;2022-10-31T01:35:32;51.47;;;23.37;;
5612;SDS011;63463;53.586;9.928;2022-10-31T01:37:58;46.40;;;22.17;;
5612;SDS011;63463;53.586;9.928;2022-10-31T01:40:28;45.33;;;21.23;;
5612;SDS011;63463;53.586;9.928;2022-10-31T01:42:54;50.33;;;24.40;;
5612;SDS011;63463;53.586;9.928;2022-10-31T01:45:20;52.17;;;23.80;;
5612;SDS011;63463;53.586;9.928;2022-10-31T01:47:46;63.50;;;24.53;;
5612;SDS011;63463;53.586;9.928;2022-10-31T01:50:14;41.47;;;21.70;;
5612;SDS011;63463;53.586;9.928;2022-10-31T01:52:44;45.97;;;21.03;;
5612;SDS011;63463;53.586;9.928;2022-10-31T01:55:13;53.27;;;21.73;;
5612;SDS011;63463;53.586;9.928;2022-10-31T01:57:40;52.00;;;21.57;;
5612;SDS011;63463;53.586;9.928;2022-10-31T02:00:07;68.07;;;22.20;;
5612;SDS011;63463;53.586;9.928;2022-10-31T02:02:34;64.57;;;22.80;;
5612;SDS011;63463;53.586;9.928;2022-10-31T02:05:02;48.60;;;22.00;;
5612;SDS011;63463;53.586;9.928;2022-10-31T02:07:32;46.10;;;21.70;;
5612;SDS011;63463;53.586;9.928;2022-10-31T02:10:00;47.43;;;21.07;;
5612;SDS011;63463;53.586;9.928;2022-10-31T02:12:26;46.00;;;20.50;;
5612;SDS011;63463;53.586;9.928;2022-10-31T02:14:52;41.67;;;19.63;;
5612;SDS011;63463;53.586;9.928;2022-10-31T02:17:18;38.17;;;19.30;;
5612;SDS011;63463;53.586;9.928;2022-10-31T02:22:19;51.37;;;20.60;;
5612;SDS011;63463;53.586;9.928;2022-10-31T02:40:27;52.10;;;21.87;;
5612;SDS011;63463;53.586;9.928;2022-10-31T02:43:12;48.60;;;22.43;;
5612;SDS011;63463;53.586;9.928;2022-10-31T02:48:08;48.40;;;22.10;;
5612;SDS011;63463;53.586;9.928;2022-10-31T02:50:36;52.20;;;24.27;;
5612;SDS011;63463;53.586;9.928;2022-10-31T02:53:03;48.03;;;22.93;;
5612;SDS011;63463;53.586;9.928;2022-10-31T02:57:56;49.00;;;23.00;;
5612;SDS011;63463;53.586;9.928;2022-10-31T03:00:23;47.13;;;22.40;;
5612;SDS011;63463;53.586;9.928;2022-10-31T03:03:10;51.87;;;23.60;;
5612;SDS011;63463;53.586;9.928;2022-10-31T03:05:40;56.20;;;21.47;;
5612;SDS011;63463;53.586;9.928;2022-10-31T03:08:22;47.20;;;21.07;;
5612;SDS011;63463;53.586;9.928;2022-10-31T03:11:02;52.73;;;23.00;;
5612;SDS011;63463;53.586;9.928;2022-10-31T03:13:43;40.63;;;20.13;;
5612;SDS011;63463;53.586;9.928;2022-10-31T03:16:18;40.30;;;19.97;;
5612;SDS011;63463;53.586;9.928;2022-10-31T03:21:16;51.00;;;22.20;;
5612;SDS011;63463;53.586;9.928;2022-10-31T03:23:43;59.63;;;23.93;;
5612;SDS011;63463;53.586;9.928;2022-10-31T03:26:10;44.83;;;21.63;;
5612;SDS011;63463;53.586;9.928;2022-10-31T03:28:39;50.60;;;20.87;;
5612;SDS011;63463;53.586;9.928;2022-10-31T03:31:07;54.63;;;22.53;;
5612;SDS011;63463;53.586;9.928;2022-10-31T03:33:34;51.33;;;21.80;;
5612;SDS011;63463;53.586;9.928;2022-10-31T03:36:02;56.43;;;22.60;;
5612;SDS011;63463;53.586;9.928;2022-10-31T03:38:29;49.77;;;21.63;;
5612;SDS011;63463;53.586;9.928;2022-10-31T03:40:56;58.20;;;23.23;;
5612;SDS011;63463;53.586;9.928;2022-10-31T03:43:26;59.63;;;22.70;;
5612;SDS011;63463;53.586;9.928;2022-10-31T03:45:54;58.60;;;22.10;;
5612;SDS011;63463;53.586;9.928;2022-10-31T03:48:20;61.47;;;23.13;;
5612;SDS011;63463;53.586;9.928;2022-10-31T03:50:58;61.73;;;23.60;;
5612;SDS011;63463;53.586;9.928;2022-10-31T03:53:26;48.93;;;23.13;;
5612;SDS011;63463;53.586;9.928;2022-10-31T03:56:02;62.50;;;22.37;;
5612;SDS011;63463;53.586;9.928;2022-10-31T03:58:29;56.00;;;22.97;;
5612;SDS011;63463;53.586;9.928;2022-10-31T04:00:58;64.63;;;24.93;;
5612;SDS011;63463;53.586;9.928;2022-10-31T04:03:28;56.30;;;24.00;;
5612;SDS011;63463;53.586;9.928;2022-10-31T04:05:56;51.63;;;23.07;;
5612;SDS011;63463;53.586;9.928;2022-10-31T04:08:24;55.27;;;22.57;;
5612;SDS011;63463;53.586;9.928;2022-10-31T04:10:52;85.53;;;26.40;;
5612;SDS011;63463;53.586;9.928;2022-10-31T04:13:19;48.23;;;22.63;;
5612;SDS011;63463;53.586;9.928;2022-10-31T04:15:46;64.33;;;24.10;;
5612;SDS011;63463;53.586;9.928;2022-10-31T04:18:13;52.27;;;23.70;;
5612;SDS011;63463;53.586;9.928;2022-10-31T04:20:40;53.83;;;22.43;;
5612;SDS011;63463;53.586;9.928;2022-10-31T04:23:25;55.43;;;23.70;;
5612;SDS011;63463;53.586;9.928;2022-10-31T04:25:51;66.93;;;24.07;;
5612;SDS011;63463;53.586;9.928;2022-10-31T04:28:17;60.80;;;24.43;;
5612;SDS011;63463;53.586;9.928;2022-10-31T04:30:43;68.73;;;23.10;;
5612;SDS011;63463;53.586;9.928;2022-10-31T04:33:09;51.63;;;23.10;;
5612;SDS011;63463;53.586;9.928;2022-10-31T04:35:35;58.43;;;23.70;;
5612;SDS011;63463;53.586;9.928;2022-10-31T04:38:01;67.63;;;23.77;;
5612;SDS011;63463;53.586;9.928;2022-10-31T04:40:27;54.97;;;23.50;;
5612;SDS011;63463;53.586;9.928;2022-10-31T04:42:53;68.10;;;24.80;;
5612;SDS011;63463;53.586;9.928;2022-10-31T04:45:19;63.60;;;25.17;;
5612;SDS011;63463;53.586;9.928;2022-10-31T04:47:45;65.13;;;24.40;;
5612;SDS011;63463;53.586;9.928;2022-10-31T04:50:11;50.60;;;23.67;;
5612;SDS011;63463;53.586;9.928;2022-10-31T04:52:41;61.87;;;24.30;;
5612;SDS011;63463;53.586;9.928;2022-10-31T04:55:07;62.40;;;23.37;;
5612;SDS011;63463;53.586;9.928;2022-10-31T04:57:39;56.37;;;22.50;;
5612;SDS011;63463;53.586;9.928;2022-10-31T05:00:05;59.40;;;23.70;;
5612;SDS011;63463;53.586;9.928;2022-10-31T05:02:32;64.27;;;21.33;;
5612;SDS011;63463;53.586;9.928;2022-10-31T05:04:57;55.63;;;23.23;;
5612;SDS011;63463;53.586;9.928;2022-10-31T05:07:23;62.60;;;23.83;;
5612;SDS011;63463;53.586;9.928;2022-10-31T05:09:49;58.03;;;23.20;;
5612;SDS011;63463;53.586;9.928;2022-10-31T05:12:15;52.53;;;22.73;;
5612;SDS011;63463;53.586;9.928;2022-10-31T05:14:41;60.00;;;23.80;;
5612;SDS011;63463;53.586;9.928;2022-10-31T05:17:07;54.03;;;21.57;;
5612;SDS011;63463;53.586;9.928;2022-10-31T05:19:33;52.20;;;21.10;;
5612;SDS011;63463;53.586;9.928;2022-10-31T05:21:59;62.97;;;21.70;;
5612;SDS011;63463;53.586;9.928;2022-10-31T05:24:25;52.00;;;21.60;;
5612;SDS011;63463;53.586;9.928;2022-10-31T05:26:51;54.83;;;20.10;;
5612;SDS011;63463;53.586;9.928;2022-10-31T05:29:17;50.20;;;21.07;;
5612;SDS011;63463;53.586;9.928;2022-10-31T05:31:43;60.50;;;22.90;;
5612;SDS011;63463;53.586;9.928;2022-10-31T05:34:09;60.90;;;21.73;;
5612;SDS011;63463;53.586;9.928;2022-10-31T05:36:34;66.33;;;23.13;;
5612;SDS011;63463;53.586;9.928;2022-10-31T05:39:00;52.80;;;21.77;;
5612;SDS011;63463;53.586;9.928;2022-10-31T05:41:26;70.03;;;21.83;;
5612;SDS011;63463;53.586;9.928;2022-10-31T05:43:52;53.47;;;21.67;;
5612;SDS011;63463;53.586;9.928;2022-10-31T05:46:18;69.03;;;22.13;;
5612;SDS011;63463;53.586;9.928;2022-10-31T05:48:44;65.33;;;23.23;;
5612;SDS011;63463;53.586;9.928;2022-10-31T05:51:10;58.27;;;21.43;;
5612;SDS011;63463;53.586;9.928;2022-10-31T05:53:37;48.70;;;19.37;;
5612;SDS011;63463;53.586;9.928;2022-10-31T05:56:03;51.30;;;20.10;;
5612;SDS011;63463;53.586;9.928;2022-10-31T05:58:29;45.63;;;18.83;;
5612;SDS011;63463;53.586;9.928;2022-10-31T06:00:55;60.40;;;21.90;;
5612;SDS011;63463;53.586;9.928;2022-10-31T06:03:21;63.90;;;22.53;;
5612;SDS011;63463;53.586;9.928;2022-10-31T06:05:47;54.03;;;20.97;;
5612;SDS011;63463;53.586;9.928;2022-10-31T06:08:13;61.93;;;22.43;;
5612;SDS011;63463;53.586;9.928;2022-10-31T06:10:39;67.20;;;23.40;;
5612;SDS011;63463;53.586;9.928;2022-10-31T06:13:05;66.90;;;21.90;;
5612;SDS011;63463;53.586;9.928;2022-10-31T06:15:31;61.20;;;22.10;;
5612;SDS011;63463;53.586;9.928;2022-10-31T06:18:01;65.00;;;22.40;;
5612;SDS011;63463;53.586;9.928;2022-10-31T06:20:27;54.77;;;22.00;;
5612;SDS011;63463;53.586;9.928;2022-10-31T06:22:53;55.53;;;20.93;;
5612;SDS011;63463;53.586;9.928;2022-10-31T06:25:19;45.00;;;21.23;;
5612;SDS011;63463;53.586;9.928;2022-10-31T06:27:45;42.13;;;18.87;;
5612;SDS011;63463;53.586;9.928;2022-10-31T06:30:11;57.53;;;20.93;;
5612;SDS011;63463;53.586;9.928;2022-10-31T06:32:37;46.90;;;20.90;;
5612;SDS011;63463;53.586;9.928;2022-10-31T06:35:03;50.03;;;20.70;;
5612;SDS011;63463;53.586;9.928;2022-10-31T06:37:29;47.97;;;21.10;;
5612;SDS011;63463;53.586;9.928;2022-10-31T06:39:55;56.60;;;21.00;;
5612;SDS011;63463;53.586;9.928;2022-10-31T06:42:21;58.73;;;20.30;;
5612;SDS011;63463;53.586;9.928;2022-10-31T06:44:47;50.40;;;21.50;;
5612;SDS011;63463;53.586;9.928;2022-10-31T06:47:13;55.83;;;22.70;;
5612;SDS011;63463;53.586;9.928;2022-10-31T06:49:39;56.63;;;21.33;;
5612;SDS011;63463;53.586;9.928;2022-10-31T06:52:05;50.20;;;20.87;;
5612;SDS011;63463;53.586;9.928;2022-10-31T06:54:31;52.93;;;21.60;;
5612;SDS011;63463;53.586;9.928;2022-10-31T06:56:57;61.80;;;21.47;;
5612;SDS011;63463;53.586;9.928;2022-10-31T06:59:23;54.90;;;21.33;;
5612;SDS011;63463;53.586;9.928;2022-10-31T07:01:49;61.17;;;22.47;;
5612;SDS011;63463;53.586;9.928;2022-10-31T07:04:15;45.70;;;21.10;;
5612;SDS011;63463;53.586;9.928;2022-10-31T07:06:41;45.60;;;18.80;;
5612;SDS011;63463;53.586;9.928;2022-10-31T07:09:07;41.50;;;19.83;;
5612;SDS011;63463;53.586;9.928;2022-10-31T07:11:33;48.40;;;20.13;;
5612;SDS011;63463;53.586;9.928;2022-10-31T07:13:59;41.20;;;19.30;;
5612;SDS011;63463;53.586;9.928;2022-10-31T07:16:25;38.40;;;18.40;;
5612;SDS011;63463;53.586;9.928;2022-10-31T07:18:51;55.80;;;20.40;;
5612;SDS011;63463;53.586;9.928;2022-10-31T07:21:17;38.97;;;19.80;;
5612;SDS011;63463;53.586;9.928;2022-10-31T07:23:43;34.30;;;16.60;;
5612;SDS011;63463;53.586;9.928;2022-10-31T07:26:09;34.73;;;17.33;;
5612;SDS011;63463;53.586;9.928;2022-10-31T07:28:35;37.60;;;16.80;;
5612;SDS011;63463;53.586;9.928;2022-10-31T07:31:01;35.50;;;16.30;;
5612;SDS011;63463;53.586;9.928;2022-10-31T07:33:27;30.20;;;15.47;;
5612;SDS011;63463;53.586;9.928;2022-10-31T07:35:53;38.50;;;14.40;;
5612;SDS011;63463;53.586;9.928;2022-10-31T07:38:19;32.33;;;16.13;;
5612;SDS011;63463;53.586;9.928;2022-10-31T07:40:49;34.50;;;13.57;;
5612;SDS011;63463;53.586;9.928;2022-10-31T07:43:15;33.83;;;15.70;;
5612;SDS011;63463;53.586;9.928;2022-10-31T07:45:41;44.87;;;15.63;;
5612;SDS011;63463;53.586;9.928;2022-10-31T07:48:07;31.20;;;14.60;;
5612;SDS011;63463;53.586;9.928;2022-10-31T07:50:33;43.80;;;15.93;;
5612;SDS011;63463;53.586;9.928;2022-10-31T07:53:06;32.83;;;16.37;;
5612;SDS011;63463;53.586;9.928;2022-10-31T07:55:33;31.97;;;15.70;;
5612;SDS011;63463;53.586;9.928;2022-10-31T07:58:03;34.53;;;16.53;;
5612;SDS011;63463;53.586;9.928;2022-10-31T08:00:29;35.03;;;15.57;;
5612;SDS011;63463;53.586;9.928;2022-10-31T08:02:56;40.00;;;15.27;;
5612;SDS011;63463;53.586;9.928;2022-10-31T08:05:22;48.97;;;16.87;;
5612;SDS011;63463;53.586;9.928;2022-10-31T08:07:48;26.67;;;14.67;;
5612;SDS011;63463;53.586;9.928;2022-10-31T08:10:14;23.27;;;13.27;;
5612;SDS011;63463;53.586;9.928;2022-10-31T08:12:40;24.10;;;12.93;;
5612;SDS011;63463;53.586;9.928;2022-10-31T08:15:06;27.63;;;15.00;;
5612;SDS011;63463;53.586;9.928;2022-10-31T08:17:34;28.33;;;14.13;;
5612;SDS011;63463;53.586;9.928;2022-10-31T08:20:00;38.40;;;17.00;;
5612;SDS011;63463;53.586;9.928;2022-10-31T08:22:27;28.70;;;15.60;;
5612;SDS011;63463;53.586;9.928;2022-10-31T08:24:53;27.77;;;14.53;;
5612;SDS011;63463;53.586;9.928;2022-10-31T08:27:19;28.70;;;16.10;;
5612;SDS011;63463;53.586;9.928;2022-10-31T08:29:45;26.10;;;14.43;;
5612;SDS011;63463;53.586;9.928;2022-10-31T08:32:11;31.20;;;13.57;;
5612;SDS011;63463;53.586;9.928;2022-10-31T08:34:36;26.50;;;14.83;;
5612;SDS011;63463;53.586;9.928;2022-10-31T08:37:02;24.50;;;12.43;;
5612;SDS011;63463;53.586;9.928;2022-10-31T08:39:28;26.47;;;13.77;;
5612;SDS011;63463;53.586;9.928;2022-10-31T08:41:54;32.90;;;15.83;;
5612;SDS011;63463;53.586;9.928;2022-10-31T08:44:20;30.30;;;13.60;;
5612;SDS011;63463;53.586;9.928;2022-10-31T08:46:46;29.90;;;15.17;;
5612;SDS011;63463;53.586;9.928;2022-10-31T08:49:12;28.50;;;15.97;;
5612;SDS011;63463;53.586;9.928;2022-10-31T08:51:38;26.30;;;13.63;;
5612;SDS011;63463;53.586;9.928;2022-10-31T08:54:04;25.73;;;13.70;;
5612;SDS011;63463;53.586;9.928;2022-10-31T08:56:30;27.67;;;13.23;;
5612;SDS011;63463;53.586;9.928;2022-10-31T08:58:56;29.87;;;13.90;;
5612;SDS011;63463;53.586;9.928;2022-10-31T09:01:22;31.57;;;14.80;;
5612;SDS011;63463;53.586;9.928;2022-10-31T09:03:48;34.83;;;13.87;;
5612;SDS011;63463;53.586;9.928;2022-10-31T09:06:14;20.63;;;12.90;;
5612;SDS011;63463;53.586;9.928;2022-10-31T09:08:40;25.63;;;14.13;;
5612;SDS011;63463;53.586;9.928;2022-10-31T09:11:06;29.50;;;14.13;;
5612;SDS011;63463;53.586;9.928;2022-10-31T09:13:32;36.57;;;14.37;;
5612;SDS011;63463;53.586;9.928;2022-10-31T09:15:58;33.30;;;14.10;;
5612;SDS011;63463;53.586;9.928;2022-10-31T09:18:24;23.93;;;13.33;;
5612;SDS011;63463;53.586;9.928;2022-10-31T09:20:52;25.07;;;13.53;;
5612;SDS011;63463;53.586;9.928;2022-10-31T09:23:19;20.73;;;11.90;;
5612;SDS011;63463;53.586;9.928;2022-10-31T09:25:46;34.70;;;14.93;;
5612;SDS011;63463;53.586;9.928;2022-10-31T09:28:13;25.70;;;14.33;;
5612;SDS011;63463;53.586;9.928;2022-10-31T09:30:39;39.63;;;15.83;;
5612;SDS011;63463;53.586;9.928;2022-10-31T09:33:07;27.90;;;13.50;;
5612;SDS011;63463;53.586;9.928;2022-10-31T09:35:33;33.93;;;15.77;;
5612;SDS011;63463;53.586;9.928;2022-10-31T09:38:06;35.20;;;14.93;;
5612;SDS011;63463;53.586;9.928;2022-10-31T09:40:33;26.90;;;13.27;;
5612;SDS011;63463;53.586;9.928;2022-10-31T09:45:44;32.13;;;14.27;;
5612;SDS011;63463;53.586;9.928;2022-10-31T09:50:55;31.37;;;14.80;;
5612;SDS011;63463;53.586;9.928;2022-10-31T09:53:25;38.27;;;14.70;;
5612;SDS011;63463;53.586;9.928;2022-10-31T09:55:52;33.43;;;14.77;;
5612;SDS011;63463;53.586;9.928;2022-10-31T09:58:19;26.60;;;13.87;;
5612;SDS011;63463;53.586;9.928;2022-10-31T10:00:47;36.70;;;15.27;;
5612;SDS011;63463;53.586;9.928;2022-10-31T10:05:41;31.27;;;13.70;;
5612;SDS011;63463;53.586;9.928;2022-10-31T10:08:11;34.43;;;13.10;;
5612;SDS011;63463;53.586;9.928;2022-10-31T10:15:55;29.07;;;14.40;;
5612;SDS011;63463;53.586;9.928;2022-10-31T10:23:36;34.80;;;13.37;;
5612;SDS011;63463;53.586;9.928;2022-10-31T10:26:15;38.13;;;13.30;;
5612;SDS011;63463;53.586;9.928;2022-10-31T10:28:44;30.03;;;13.67;;
5612;SDS011;63463;53.586;9.928;2022-10-31T10:31:13;25.50;;;13.70;;
5612;SDS011;63463;53.586;9.928;2022-10-31T10:33:42;32.27;;;13.60;;
5612;SDS011;63463;53.586;9.928;2022-10-31T10:39:08;31.77;;;13.00;;
5612;SDS011;63463;53.586;9.928;2022-10-31T10:41:37;24.90;;;12.70;;
5612;SDS011;63463;53.586;9.928;2022-10-31T10:44:05;23.37;;;12.53;;
5612;SDS011;63463;53.586;9.928;2022-10-31T10:46:43;24.73;;;12.63;;
5612;SDS011;63463;53.586;9.928;2022-10-31T10:49:35;27.17;;;12.70;;
5612;SDS011;63463;53.586;9.928;2022-10-31T10:52:17;27.53;;;11.90;;
5612;SDS011;63463;53.586;9.928;2022-10-31T10:54:46;30.00;;;13.67;;
5612;SDS011;63463;53.586;9.928;2022-10-31T10:57:19;27.53;;;13.43;;
5612;SDS011;63463;53.586;9.928;2022-10-31T10:59:47;28.80;;;12.93;;
5612;SDS011;63463;53.586;9.928;2022-10-31T11:02:17;27.17;;;12.53;;
5612;SDS011;63463;53.586;9.928;2022-10-31T11:04:44;24.20;;;10.53;;
5612;SDS011;63463;53.586;9.928;2022-10-31T11:07:11;26.30;;;12.50;;
5612;SDS011;63463;53.586;9.928;2022-10-31T11:09:37;25.27;;;13.53;;
5612;SDS011;63463;53.586;9.928;2022-10-31T11:12:11;31.57;;;14.07;;
5612;SDS011;63463;53.586;9.928;2022-10-31T11:14:49;37.00;;;13.00;;
5612;SDS011;63463;53.586;9.928;2022-10-31T11:17:19;31.27;;;12.77;;
5612;SDS011;63463;53.586;9.928;2022-10-31T11:19:45;22.77;;;13.30;;
5612;SDS011;63463;53.586;9.928;2022-10-31T11:22:15;34.23;;;14.53;;
5612;SDS011;63463;53.586;9.928;2022-10-31T11:24:42;37.60;;;15.00;;
5612;SDS011;63463;53.586;9.928;2022-10-31T11:27:16;34.97;;;14.80;;
5612;SDS011;63463;53.586;9.928;2022-10-31T11:29:42;25.53;;;13.47;;
5612;SDS011;63463;53.586;9.928;2022-10-31T11:32:16;29.23;;;12.70;;
5612;SDS011;63463;53.586;9.928;2022-10-31T11:34:44;37.50;;;14.20;;
5612;SDS011;63463;53.586;9.928;2022-10-31T11:39:40;20.70;;;11.03;;
5612;SDS011;63463;53.586;9.928;2022-10-31T11:42:07;24.90;;;12.53;;
5612;SDS011;63463;53.586;9.928;2022-10-31T11:44:33;32.70;;;14.50;;
5612;SDS011;63463;53.586;9.928;2022-10-31T11:47:03;32.13;;;15.97;;
5612;SDS011;63463;53.586;9.928;2022-10-31T11:49:31;33.83;;;16.27;;
5612;SDS011;63463;53.586;9.928;2022-10-31T11:52:04;35.10;;;16.40;;
5612;SDS011;63463;53.586;9.928;2022-10-31T11:54:33;33.20;;;16.67;;
5612;SDS011;63463;53.586;9.928;2022-10-31T11:56:59;37.80;;;17.87;;
5612;SDS011;63463;53.586;9.928;2022-10-31T11:59:27;47.87;;;20.10;;
5612;SDS011;63463;53.586;9.928;2022-10-31T12:01:54;51.57;;;21.50;;
5612;SDS011;63463;53.586;9.928;2022-10-31T12:04:23;59.27;;;23.23;;
5612;SDS011;63463;53.586;9.928;2022-10-31T12:06:50;50.33;;;22.80;;
5612;SDS011;63463;53.586;9.928;2022-10-31T12:09:26;49.27;;;23.87;;
5612;SDS011;63463;53.586;9.928;2022-10-31T12:14:28;52.13;;;23.70;;
5612;SDS011;63463;53.586;9.928;2022-10-31T12:16:57;47.83;;;22.93;;
5612;SDS011;63463;53.586;9.928;2022-10-31T12:21:59;48.63;;;24.43;;
5612;SDS011;63463;53.586;9.928;2022-10-31T12:27:01;48.20;;;22.20;;
5612;SDS011;63463;53.586;9.928;2022-10-31T12:34:51;46.73;;;21.47;;
5612;SDS011;63463;53.586;9.928;2022-10-31T12:50:22;50.30;;;19.50;;
5612;SDS011;63463;53.586;9.928;2022-10-31T12:52:59;43.13;;;20.37;;
5612;SDS011;63463;53.586;9.928;2022-10-31T12:58:04;42.03;;;19.80;;
5612;SDS011;63463;53.586;9.928;2022-10-31T13:00:34;37.33;;;18.27;;
5612;SDS011;63463;53.586;9.928;2022-10-31T13:03:25;40.23;;;19.43;;
5612;SDS011;63463;53.586;9.928;2022-10-31T13:05:52;38.87;;;18.97;;
5612;SDS011;63463;53.586;9.928;2022-10-31T13:08:23;33.23;;;16.13;;
5612;SDS011;63463;53.586;9.928;2022-10-31T13:10:52;35.07;;;18.07;;
5612;SDS011;63463;53.586;9.928;2022-10-31T13:13:26;41.83;;;18.17;;
5612;SDS011;63463;53.586;9.928;2022-10-31T13:15:55;45.33;;;19.20;;
5612;SDS011;63463;53.586;9.928;2022-10-31T13:18:36;37.17;;;18.07;;
5612;SDS011;63463;53.586;9.928;2022-10-31T13:21:07;43.93;;;18.30;;
5612;SDS011;63463;53.586;9.928;2022-10-31T13:23:35;39.43;;;16.80;;
5612;SDS011;63463;53.586;9.928;2022-10-31T13:26:03;33.30;;;16.47;;
5612;SDS011;63463;53.586;9.928;2022-10-31T13:28:36;44.67;;;18.23;;
5612;SDS011;63463;53.586;9.928;2022-10-31T13:31:04;37.40;;;17.57;;
5612;SDS011;63463;53.586;9.928;2022-10-31T13:33:50;32.57;;;17.50;;
5612;SDS011;63463;53.586;9.928;2022-10-31T13:41:46;29.67;;;15.03;;
5612;SDS011;63463;53.586;9.928;2022-10-31T13:46:43;38.87;;;15.73;;
5612;SDS011;63463;53.586;9.928;2022-10-31T13:54:32;28.37;;;14.70;;
5612;SDS011;63463;53.586;9.928;2022-10-31T13:56:59;34.90;;;14.53;;
5612;SDS011;63463;53.586;9.928;2022-10-31T13:59:25;26.20;;;13.80;;
5612;SDS011;63463;53.586;9.928;2022-10-31T14:01:56;29.03;;;14.17;;
5612;SDS011;63463;53.586;9.928;2022-10-31T14:04:55;45.83;;;17.83;;
5612;SDS011;63463;53.586;9.928;2022-10-31T14:07:22;34.50;;;16.57;;
5612;SDS011;63463;53.586;9.928;2022-10-31T14:12:26;35.93;;;15.30;;
5612;SDS011;63463;53.586;9.928;2022-10-31T14:14:59;31.13;;;16.10;;
5612;SDS011;63463;53.586;9.928;2022-10-31T14:17:27;36.17;;;16.30;;
5612;SDS011;63463;53.586;9.928;2022-10-31T14:22:31;30.73;;;15.33;;
5612;SDS011;63463;53.586;9.928;2022-10-31T14:24:57;31.77;;;14.30;;
5612;SDS011;63463;53.586;9.928;2022-10-31T14:29:53;22.13;;;12.30;;
5612;SDS011;63463;53.586;9.928;2022-10-31T14:32:22;29.30;;;14.07;;
5612;SDS011;63463;53.586;9.928;2022-10-31T14:48:04;33.17;;;14.03;;
5612;SDS011;63463;53.586;9.928;2022-10-31T14:50:41;25.00;;;14.13;;
5612;SDS011;63463;53.586;9.928;2022-10-31T14:53:14;34.87;;;13.50;;
5612;SDS011;63463;53.586;9.928;2022-10-31T14:55:46;28.57;;;14.70;;
5612;SDS011;63463;53.586;9.928;2022-10-31T14:58:15;28.90;;;13.37;;
5612;SDS011;63463;53.586;9.928;2022-10-31T15:00:43;28.90;;;13.80;;
5612;SDS011;63463;53.586;9.928;2022-10-31T15:03:13;24.77;;;13.27;;
5612;SDS011;63463;53.586;9.928;2022-10-31T15:05:41;24.97;;;12.17;;
5612;SDS011;63463;53.586;9.928;2022-10-31T15:08:13;27.43;;;13.67;;
5612;SDS011;63463;53.586;9.928;2022-10-31T15:10:39;27.03;;;12.77;;
5612;SDS011;63463;53.586;9.928;2022-10-31T15:13:20;27.53;;;12.90;;
5612;SDS011;63463;53.586;9.928;2022-10-31T15:15:46;29.00;;;13.80;;
5612;SDS011;63463;53.586;9.928;2022-10-31T15:18:15;24.00;;;13.30;;
5612;SDS011;63463;53.586;9.928;2022-10-31T15:20:42;27.03;;;13.50;;
5612;SDS011;63463;53.586;9.928;2022-10-31T15:23:10;26.63;;;12.87;;
5612;SDS011;63463;53.586;9.928;2022-10-31T15:25:36;28.73;;;14.80;;
5612;SDS011;63463;53.586;9.928;2022-10-31T15:28:13;23.87;;;12.40;;
5612;SDS011;63463;53.586;9.928;2022-10-31T15:30:39;32.63;;;13.40;;
5612;SDS011;63463;53.586;9.928;2022-10-31T15:33:18;23.90;;;13.17;;
5612;SDS011;63463;53.586;9.928;2022-10-31T15:35:53;26.37;;;13.37;;
5612;SDS011;63463;53.586;9.928;2022-10-31T15:38:20;31.77;;;14.83;;
5612;SDS011;63463;53.586;9.928;2022-10-31T15:43:39;34.07;;;14.87;;
5612;SDS011;63463;53.586;9.928;2022-10-31T15:46:07;32.87;;;14.67;;
5612;SDS011;63463;53.586;9.928;2022-10-31T15:48:34;27.63;;;13.20;;
5612;SDS011;63463;53.586;9.928;2022-10-31T15:51:00;28.43;;;14.53;;
5612;SDS011;63463;53.586;9.928;2022-10-31T15:53:30;37.83;;;15.17;;
5612;SDS011;63463;53.586;9.928;2022-10-31T15:56:05;26.40;;;14.10;;
5612;SDS011;63463;53.586;9.928;2022-10-31T15:58:45;33.13;;;15.07;;
5612;SDS011;63463;53.586;9.928;2022-10-31T16:01:20;38.27;;;15.10;;
5612;SDS011;63463;53.586;9.928;2022-10-31T16:03:56;28.17;;;14.53;;
5612;SDS011;63463;53.586;9.928;2022-10-31T16:06:23;42.87;;;16.77;;
5612;SDS011;63463;53.586;9.928;2022-10-31T16:08:49;38.17;;;15.83;;
5612;SDS011;63463;53.586;9.928;2022-10-31T16:11:37;30.53;;;15.40;;
5612;SDS011;63463;53.586;9.928;2022-10-31T16:14:06;36.03;;;15.47;;
5612;SDS011;63463;53.586;9.928;2022-10-31T16:16:34;35.97;;;16.23;;
5612;SDS011;63463;53.586;9.928;2022-10-31T16:19:05;29.50;;;14.77;;
5612;SDS011;63463;53.586;9.928;2022-10-31T16:21:39;31.90;;;15.47;;
5612;SDS011;63463;53.586;9.928;2022-10-31T16:24:16;29.67;;;15.07;;
5612;SDS011;63463;53.586;9.928;2022-10-31T16:26:47;28.60;;;13.93;;
5612;SDS011;63463;53.586;9.928;2022-10-31T16:31:53;31.53;;;13.90;;
5612;SDS011;63463;53.586;9.928;2022-10-31T16:34:22;27.23;;;13.67;;
5612;SDS011;63463;53.586;9.928;2022-10-31T16:36:48;30.13;;;13.90;;
5612;SDS011;63463;53.586;9.928;2022-10-31T16:39:14;31.37;;;14.60;;